Terminal Aerodrome Forecast
Issued by NWS

Home | Current Version | Previous Version | Graphics & Text | Print | Product List | Glossary On
Versions: 1 2 3 4 5 6 7 8 9 10 11 12 13 14 15 16 17 18
000
FTUS42 KMHX 202100 AAA
TAFPGV
TAF AMD
KPGV 202152Z 2022/2118 VRB03KT P6SM SCT040 BKN130
     FM210100 00000KT P6SM SCT040 BKN130
     FM210700 00000KT 4SM BR SCT040 SCT130
     FM211300 09004KT P6SM SCT030
      AMD LTD TO CLD VIS AND WIND=

USA.gov is the U.S. government's official web portal to all federal, state and local government web resources and services.